Time;durP1;ratioP1;P1;durP2;ratioP2;P2;SDS_P1;SDS_P2;PMS_P1;PMS_P2;Temp;Humidity;BMP_temperature;BMP_pressure;BME280_temperature;BME280_humidity;BME280_pressure;Samples;Min_cycle;Max_cycle;Signal;HPM_P1;HPM_P2
2023/03/24 00:04:33;;;;;;;4.30;2.90;;;;;;;13.94;65.81;98224.32;221384;1275;22458;-76
2023/03/24 00:09:36;;;;;;;5.30;2.80;;;;;;;13.91;65.83;98225.59;221527;1279;24267;-76
2023/03/24 00:14:53;;;;;;;4.10;2.70;;;;;;;13.93;65.99;98221.12;221366;1279;22657;-76
2023/03/24 00:20:06;;;;;;;3.60;2.60;;;;;;;13.99;65.90;98222.86;221310;1279;22605;-76
2023/03/24 00:25:22;;;;;;;5.60;3.00;;;;;;;14.02;65.93;98218.30;221325;1279;22852;-76
2023/03/24 00:30:34;;;;;;;2.80;2.30;;;;;;;14.04;65.87;98217.13;221517;1279;23424;-76
2023/03/24 00:35:44;;;;;;;;;;;;;;;14.02;65.71;98208.94;221366;1279;24268;-76
2023/03/24 00:40:55;;;;;;;3.10;2.70;;;;;;;13.97;65.85;98206.13;221505;1279;22527;-75
2023/03/24 00:46:00;;;;;;;4.20;2.70;;;;;;;13.92;65.86;98196.86;221419;1278;25338;-77
2023/03/24 00:51:25;;;;;;;4.70;2.80;;;;;;;13.85;66.01;98181.50;221532;1278;22521;-75
2023/03/24 00:56:34;;;;;;;3.20;2.80;;;;;;;13.79;66.30;98175.52;221272;1278;22538;-77
2023/03/24 01:01:39;;;;;;;4.20;2.90;;;;;;;13.73;66.19;98174.24;221322;1278;22768;-76
2023/03/24 01:06:43;;;;;;;3.50;2.80;;;;;;;13.70;66.36;98173.45;221315;1279;22531;-75
2023/03/24 01:11:46;;;;;;;4.30;2.70;;;;;;;13.70;66.49;98169.46;221388;1275;24099;-75
2023/03/24 01:16:51;;;;;;;3.60;2.40;;;;;;;13.68;66.58;98162.66;221346;1278;22528;-76
2023/03/24 01:22:01;;;;;;;3.90;2.70;;;;;;;13.66;66.81;98157.20;221293;1278;22527;-76
2023/03/24 01:27:03;;;;;;;4.00;2.60;;;;;;;13.63;66.67;98162.13;221238;1278;25038;-75
2023/03/24 01:32:11;;;;;;;3.40;2.30;;;;;;;13.60;66.89;98156.92;221289;1279;22535;-76
2023/03/24 01:37:14;;;;;;;4.50;2.50;;;;;;;13.56;66.86;98156.92;221310;1278;22535;-75
2023/03/24 01:42:35;;;;;;;4.40;2.50;;;;;;;13.54;66.87;98151.55;221535;1278;22540;-75
2023/03/24 01:47:49;;;;;;;3.80;2.60;;;;;;;13.51;67.06;98149.20;221533;1279;24403;-76
2023/03/24 01:52:54;;;;;;;4.20;3.00;;;;;;;13.48;67.16;98147.20;221494;1278;22589;-76
2023/03/24 01:58:02;;;;;;;4.60;2.80;;;;;;;13.46;67.09;98139.55;221333;1279;22619;-74
2023/03/24 02:03:25;;;;;;;;;;;;;;;13.44;67.30;98133.31;221321;1279;22513;-76
2023/03/24 02:08:41;;;;;;;4.50;3.50;;;;;;;13.42;67.27;98131.38;221609;1279;22460;-76
2023/03/24 02:13:44;;;;;;;5.30;3.90;;;;;;;13.42;67.45;98126.05;221334;1278;22554;-76
2023/03/24 02:19:22;;;;;;;4.70;3.90;;;;;;;13.41;67.72;98128.00;221107;1279;22547;-76
2023/03/24 02:25:05;;;;;;;5.20;3.40;;;;;;;13.39;67.79;98130.33;221363;1279;22557;-77
2023/03/24 02:31:42;;;;;;;;;;;;;;;;;;;;;
2023/03/24 02:37:35;;;;;;;6.10;4.70;;;;;;;13.36;67.85;98114.90;220632;1279;22540;-75
2023/03/24 02:43:44;;;;;;;7.80;4.70;;;;;;;13.36;67.83;98112.17;221318;1278;22553;-76
2023/03/24 02:49:28;;;;;;;6.10;5.20;;;;;;;13.32;67.84;98108.39;221025;1279;22547;-76
2023/03/24 02:54:55;;;;;;;7.30;4.90;;;;;;;13.31;67.99;98108.77;221588;1279;24265;-75
2023/03/24 03:00:29;;;;;;;9.40;5.50;;;;;;;13.30;68.43;98103.80;221344;1279;24334;-75
2023/03/24 03:05:41;;;;;;;7.20;5.70;;;;;;;13.28;68.67;98102.84;221293;1279;22549;-76
2023/03/24 03:10:49;;;;;;;9.60;5.80;;;;;;;13.25;69.10;98108.05;221570;1273;22525;-75
2023/03/24 03:15:59;;;;;;;9.30;6.10;;;;;;;13.21;69.42;98108.67;221636;1275;22572;-77
2023/03/24 03:21:12;;;;;;;9.40;6.10;;;;;;;13.16;69.60;98104.13;221479;1279;25336;-76
2023/03/24 03:26:26;;;;;;;10.10;6.80;;;;;;;13.11;69.81;98103.20;221511;1278;22530;-76
2023/03/24 03:31:43;;;;;;;9.40;6.90;;;;;;;13.05;70.28;98098.12;221410;1279;23572;-77
2023/03/24 03:36:56;;;;;;;10.70;7.30;;;;;;;13.00;70.83;98100.34;221474;1278;24267;-76
2023/03/24 03:42:00;;;;;;;11.00;7.30;;;;;;;12.95;71.21;98100.51;221391;1278;22877;-77
2023/03/24 03:47:14;;;;;;;9.40;7.50;;;;;;;12.90;71.35;98100.16;221431;1279;24251;-76
2023/03/24 03:52:23;;;;;;;12.50;8.10;;;;;;;12.84;71.95;98107.02;221391;1278;22526;-76
2023/03/24 03:57:28;;;;;;;10.10;8.60;;;;;;;12.76;71.91;98105.02;221333;1279;22688;-76
2023/03/24 04:03:28;;;;;;;12.60;9.30;;;;;;;12.69;72.23;98103.83;221424;1279;22524;-76
2023/03/24 04:09:22;;;;;;;12.50;9.30;;;;;;;12.61;72.85;98107.44;221686;1279;22676;-77
2023/03/24 04:15:16;;;;;;;15.00;9.60;;;;;;;12.53;73.23;98112.67;221396;1279;22524;-77
2023/03/24 04:21:32;;;;;;;26.00;18.20;;;;;;;12.43;73.90;98107.11;221380;1279;22530;-76
2023/03/24 04:27:09;;;;;;;15.80;12.70;;;;;;;12.31;74.18;98107.58;221331;1279;22526;-77
2023/03/24 04:32:42;;;;;;;18.40;13.30;;;;;;;12.18;74.75;98104.73;221582;1279;22658;-77
2023/03/24 04:37:49;;;;;;;21.10;14.10;;;;;;;12.05;75.14;98089.98;221539;1279;24413;-77
2023/03/24 04:43:05;;;;;;;;;;;;;;;11.94;75.26;98086.06;222066;1276;22503;-77
2023/03/24 04:48:17;;;;;;;16.80;12.90;;;;;;;11.83;75.78;98081.73;221320;1279;22521;-76
2023/03/24 04:54:15;;;;;;;18.10;13.50;;;;;;;11.73;76.20;98080.27;221455;1278;24261;-77
2023/03/24 04:59:24;;;;;;;19.50;14.30;;;;;;;11.61;76.71;98071.01;221275;1279;22534;-77
2023/03/24 05:04:38;;;;;;;19.10;15.30;;;;;;;11.54;77.10;98071.66;221295;1279;22763;-77
2023/03/24 05:10:13;;;;;;;19.90;15.70;;;;;;;11.50;77.24;98067.20;221654;1279;22541;-76
2023/03/24 05:15:26;;;;;;;20.00;17.10;;;;;;;11.45;77.73;98068.30;221539;1279;23532;-77
2023/03/24 05:20:50;;;;;;;22.50;18.60;;;;;;;11.41;78.07;98062.73;221255;1279;24435;-75
2023/03/24 05:25:57;;;;;;;24.70;19.00;;;;;;;11.38;78.42;98065.55;221322;1279;24262;-76
2023/03/24 05:31:03;;;;;;;22.70;18.20;;;;;;;11.35;78.75;98065.77;221314;1279;24267;-77
2023/03/24 05:36:43;;;;;;;;;;;;;;;;;;;;;
2023/03/24 05:41:48;;;;;;;24.40;18.70;;;;;;;11.33;79.32;98061.05;221760;1278;22783;-77
2023/03/24 05:46:53;;;;;;;23.20;19.30;;;;;;;11.35;79.33;98057.63;221384;1279;23782;-77
2023/03/24 05:52:04;;;;;;;21.50;18.90;;;;;;;11.35;79.80;98058.31;221547;1279;23054;-77
2023/03/24 05:57:24;;;;;;;20.70;17.10;;;;;;;11.35;79.62;98057.22;221397;1279;22677;-76
2023/03/24 06:03:13;;;;;;;24.30;18.80;;;;;;;11.37;79.76;98049.73;221434;1279;25242;-77
2023/03/24 06:08:53;;;;;;;22.80;18.80;;;;;;;11.41;80.23;98052.65;221689;1279;22651;-77
2023/03/24 06:14:03;;;;;;;26.30;20.30;;;;;;;11.45;80.51;98049.71;221617;1279;22521;-76
2023/03/24 06:19:51;;;;;;;22.80;18.20;;;;;;;11.49;80.35;98047.45;221573;1279;25304;-77
2023/03/24 06:26:00;;;;;;;23.50;17.60;;;;;;;11.56;80.54;98047.44;220410;1287;25319;-77
2023/03/24 06:31:13;;;;;;;23.40;18.90;;;;;;;11.60;80.45;98052.31;221447;1279;25345;-76
2023/03/24 06:36:26;;;;;;;24.10;17.30;;;;;;;11.62;80.55;98050.37;221386;1279;22542;-77
2023/03/24 06:41:34;;;;;;;23.90;19.30;;;;;;;11.65;80.77;98048.96;221650;1279;23157;-76
2023/03/24 06:46:49;;;;;;;21.30;16.50;;;;;;;11.72;80.74;98055.42;221710;1273;22675;-75
2023/03/24 06:51:54;;;;;;;20.80;16.30;;;;;;;11.79;80.60;98047.15;221835;1272;22532;-77
2023/03/24 06:57:02;;;;;;;20.80;16.20;;;;;;;11.92;80.85;98043.77;221966;1269;22667;-76
2023/03/24 07:02:27;;;;;;;21.90;17.80;;;;;;;12.14;80.94;98039.48;221871;1276;22527;-76
2023/03/24 07:07:36;;;;;;;21.40;15.10;;;;;;;12.35;80.77;98040.63;221993;1270;22582;-75
2023/03/24 07:13:32;;;;;;;19.90;14.10;;;;;;;12.54;80.64;98050.59;222935;1260;138816;-76
2023/03/24 07:18:42;;;;;;;24.00;13.90;;;;;;;12.72;80.40;98049.14;221200;1275;139868;-75
2023/03/24 07:23:49;;;;;;;16.10;13.70;;;;;;;12.95;80.22;98047.12;221043;1276;139057;-75
2023/03/24 07:28:56;;;;;;;20.20;12.20;;;;;;;13.19;79.96;98044.25;221243;1274;138986;-76
2023/03/24 07:34:11;;;;;;;15.70;10.90;;;;;;;13.46;79.75;98047.46;221290;1273;139505;-75
2023/03/24 07:39:14;;;;;;;15.40;10.70;;;;;;;13.70;79.49;98044.73;221431;1266;24693;-75
2023/03/24 07:44:26;;;;;;;12.50;10.50;;;;;;;13.92;79.13;98039.59;221533;1265;25391;-75
2023/03/24 07:49:35;;;;;;;16.60;10.90;;;;;;;14.14;79.01;98033.70;221192;1270;138614;-75
2023/03/24 07:54:48;;;;;;;18.60;12.20;;;;;;;14.41;78.76;98027.66;221305;1272;138747;-74
2023/03/24 08:00:16;;;;;;;12.50;10.30;;;;;;;14.70;78.64;98024.98;221714;1265;138962;-75
2023/03/24 08:05:29;;;;;;;14.00;10.00;;;;;;;14.93;78.28;98018.08;221421;1276;139436;-75
2023/03/24 08:10:58;;;;;;;16.30;8.70;;;;;;;15.19;77.64;98019.45;221915;1272;139011;-75
2023/03/24 08:16:21;;;;;;;;;;;;;;;15.53;77.07;98019.31;221956;1272;138899;-76
2023/03/24 08:21:24;;;;;;;15.80;7.60;;;;;;;15.92;76.48;98018.37;221762;1264;125112;-76
2023/03/24 08:26:29;;;;;;;12.00;6.20;;;;;;;16.28;75.46;98014.70;222281;1263;25320;-75
2023/03/24 08:31:38;;;;;;;190.50;23.30;;;;;;;16.57;73.96;98013.16;221917;1272;139319;-75
2023/03/24 08:36:43;;;;;;;95.50;12.60;;;;;;;16.87;73.22;98006.83;221812;1273;139518;-76
2023/03/24 08:41:49;;;;;;;24.50;7.40;;;;;;;17.14;72.14;97992.41;221715;1272;139806;-78
2023/03/24 08:47:07;;;;;;;101.50;14.10;;;;;;;17.30;71.22;97983.36;221764;1272;138886;-76
2023/03/24 08:52:27;;;;;;;164.70;121.00;;;;;;;17.44;71.37;97975.66;221948;1272;139188;-75
2023/03/24 08:57:30;;;;;;;23.90;15.50;;;;;;;17.58;70.97;97970.25;221778;1264;139250;-79
2023/03/24 09:02:45;;;;;;;7.20;6.20;;;;;;;17.75;70.62;97965.94;221999;1272;22528;-75
2023/03/24 09:08:02;;;;;;;47.70;8.50;;;;;;;17.84;70.17;97957.46;221972;1264;138979;-75
2023/03/24 09:13:34;;;;;;;36.10;11.80;;;;;;;18.01;69.94;97951.98;221834;1278;138972;-77
2023/03/24 09:19:22;;;;;;;;;;;;;;;;;;;;;
2023/03/24 09:24:54;;;;;;;;;;;;;;;;;;;;;
2023/03/24 09:30:08;;;;;;;34.20;8.00;;;;;;;18.92;67.92;97940.82;223390;1276;138802;-77
2023/03/24 09:35:16;;;;;;;103.40;17.40;;;;;;;19.04;66.17;97930.63;221873;1272;138449;-77
2023/03/24 09:40:26;;;;;;;75.90;16.60;;;;;;;19.05;65.72;97926.19;221994;1272;139622;-77
2023/03/24 09:45:55;;;;;;;24.30;6.00;;;;;;;19.17;65.39;97922.52;223199;1272;138766;-77
2023/03/24 09:51:19;;;;;;;34.00;8.90;;;;;;;19.25;64.59;97924.20;222061;1278;22582;-76
2023/03/24 09:56:36;;;;;;;8.90;5.30;;;;;;;19.33;63.95;97922.07;222079;1276;22744;-77
2023/03/24 10:01:53;;;;;;;10.50;5.30;;;;;;;19.44;63.15;97918.40;221866;1270;138716;-77
2023/03/24 10:07:39;;;;;;;114.30;22.40;;;;;;;19.49;62.44;97915.89;221888;1273;137966;-77
2023/03/24 10:13:19;;;;;;;13.40;6.90;;;;;;;19.61;62.22;97904.55;221474;1275;138409;-71
2023/03/24 10:18:38;;;;;;;7.70;5.60;;;;;;;19.86;62.16;97897.59;221276;1272;258278;-75
2023/03/24 10:24:33;;;;;;;18.90;6.30;;;;;;;20.09;61.04;97892.36;221519;1263;138243;-75
2023/03/24 10:29:57;;;;;;;11.20;6.30;;;;;;;20.06;58.97;97885.27;222425;1275;137967;-76
2023/03/24 10:35:36;;;;;;;20.30;9.30;;;;;;;20.00;59.17;97890.02;221327;1273;138325;-81
2023/03/24 10:40:44;;;;;;;24.30;7.90;;;;;;;20.13;59.06;97894.08;221378;1276;138396;-83
2023/03/24 10:46:07;;;;;;;8.70;5.80;;;;;;;20.16;58.82;97887.52;222639;1277;138859;-82
2023/03/24 10:51:18;;;;;;;8.20;6.30;;;;;;;20.03;57.26;97879.39;221523;1280;25287;-81
2023/03/24 10:57:05;;;;;;;9.80;6.40;;;;;;;19.80;57.32;97875.83;221596;1274;137446;-79
2023/03/24 11:02:30;;;;;;;9.40;7.40;;;;;;;19.63;57.54;97878.39;220936;1281;138014;-81
2023/03/24 11:07:46;;;;;;;8.20;6.60;;;;;;;19.67;58.16;97865.00;223312;1275;137961;-82
2023/03/24 11:12:52;;;;;;;9.10;6.80;;;;;;;19.72;57.72;97862.17;221656;1273;137765;-83
2023/03/24 11:18:11;;;;;;;7.40;6.70;;;;;;;19.75;57.48;97858.77;221505;1275;138466;-79
2023/03/24 11:23:44;;;;;;;9.60;6.80;;;;;;;19.75;57.25;97852.17;221415;1275;137981;-76
2023/03/24 11:29:29;;;;;;;10.90;7.60;;;;;;;19.69;57.24;97845.34;221558;1259;138284;-75
2023/03/24 11:34:59;;;;;;;9.70;7.00;;;;;;;19.61;57.02;97834.56;221566;1270;138633;-73
2023/03/24 11:40:58;;;;;;;10.90;7.60;;;;;;;19.51;57.20;97825.81;222139;1275;138894;-76
2023/03/24 11:46:25;;;;;;;9.00;7.90;;;;;;;19.43;57.48;97818.09;222803;1275;138888;-74
2023/03/24 11:51:34;;;;;;;10.70;8.20;;;;;;;19.41;57.49;97811.73;222541;1269;137953;-76
2023/03/24 11:56:59;;;;;;;10.30;8.20;;;;;;;19.42;57.69;97810.27;221358;1279;22585;-75
2023/03/24 12:02:18;;;;;;;9.00;8.00;;;;;;;19.40;57.52;97801.70;220904;1262;137758;-72
2023/03/24 12:07:45;;;;;;;9.00;8.10;;;;;;;19.31;57.80;97796.86;221115;1273;137922;-74
2023/03/24 12:13:10;;;;;;;14.20;8.20;;;;;;;19.28;57.95;97793.66;220785;1282;138567;-73
2023/03/24 12:18:55;;;;;;;9.80;8.10;;;;;;;19.27;58.61;97786.44;221006;1278;138616;-74
2023/03/24 12:24:29;;;;;;;9.90;7.90;;;;;;;19.26;58.64;97776.15;220940;1273;138013;-73
2023/03/24 12:30:01;;;;;;;9.60;8.30;;;;;;;19.24;58.74;97776.09;221209;1271;137962;-79
2023/03/24 12:35:36;;;;;;;10.50;8.30;;;;;;;19.25;59.13;97773.95;221202;1279;138004;-79
2023/03/24 12:41:01;;;;;;;11.00;8.50;;;;;;;19.27;59.12;97769.02;221319;1278;138316;-78
2023/03/24 12:46:49;;;;;;;11.00;7.90;;;;;;;19.30;59.28;97768.21;221632;1274;138488;-80
2023/03/24 12:52:31;;;;;;;10.10;8.60;;;;;;;19.27;59.14;97762.38;222372;1274;138065;-79
2023/03/24 12:57:44;;;;;;;12.20;8.60;;;;;;;19.21;59.46;97755.09;221265;1278;138216;-79
2023/03/24 13:02:55;;;;;;;15.00;8.20;;;;;;;19.24;59.60;97746.52;221652;1274;22543;-78
2023/03/24 13:08:12;;;;;;;12.30;8.60;;;;;;;19.18;59.05;97743.90;221390;1276;137761;-75
2023/03/24 13:13:34;;;;;;;13.20;9.50;;;;;;;19.06;59.08;97742.02;221213;1264;138601;-77
2023/03/24 13:18:47;;;;;;;13.30;9.30;;;;;;;18.99;59.38;97741.45;221357;1262;138120;-76
2023/03/24 13:24:11;;;;;;;10.20;8.10;;;;;;;18.92;59.00;97736.20;221522;1267;138067;-76
2023/03/24 13:29:44;;;;;;;10.10;7.00;;;;;;;18.86;58.94;97723.71;221408;1276;138206;-76
2023/03/24 13:35:19;;;;;;;;;;;;;;;18.78;58.33;97717.13;221503;1273;138200;-77
2023/03/24 13:40:28;;;;;;;6.20;4.30;;;;;;;18.67;57.40;97709.09;221104;1277;125002;-77
2023/03/24 13:45:55;;;;;;;4.90;3.70;;;;;;;18.58;55.52;97708.63;221970;1273;138225;-80
2023/03/24 13:51:21;;;;;;;7.40;4.20;;;;;;;18.49;55.13;97703.52;221212;1280;24379;-78
2023/03/24 13:56:32;;;;;;;6.30;4.40;;;;;;;18.40;54.57;97701.04;221186;1259;22539;-78
2023/03/24 14:01:39;;;;;;;4.60;3.70;;;;;;;18.31;54.30;97700.96;221370;1281;137640;-77
2023/03/24 14:06:49;;;;;;;6.20;4.20;;;;;;;18.27;54.16;97699.45;221371;1269;137744;-82
2023/03/24 14:12:36;;;;;;;7.40;3.70;;;;;;;18.31;54.22;97690.64;221049;1274;137960;-78
2023/03/24 14:18:37;;;;;;;;;;;;;;;;;;;;;
2023/03/24 14:24:17;;;;;;;5.10;4.10;;;;;;;18.31;53.78;97669.95;221245;1275;137950;-77
2023/03/24 14:29:39;;;;;;;6.70;4.20;;;;;;;18.26;53.68;97661.16;221127;1275;137940;-80
2023/03/24 14:34:56;;;;;;;5.40;4.30;;;;;;;18.23;53.71;97669.88;221059;1277;137978;-80
2023/03/24 14:40:08;;;;;;;6.80;4.50;;;;;;;18.16;53.77;97674.89;221208;1273;138624;-80
2023/03/24 14:45:50;;;;;;;6.50;4.10;;;;;;;18.07;53.65;97678.72;221165;1277;137994;-81
2023/03/24 14:50:58;;;;;;;5.00;3.70;;;;;;;18.03;53.57;97677.79;221411;1275;22584;-77
2023/03/24 14:56:01;;;;;;;5.80;4.30;;;;;;;18.04;53.60;97681.00;221169;1268;137776;-79
2023/03/24 15:01:17;;;;;;;8.40;4.20;;;;;;;18.01;53.59;97673.98;221207;1263;139644;-78
2023/03/24 15:06:22;;;;;;;7.40;4.60;;;;;;;17.91;53.60;97669.05;221642;1275;22527;-80
2023/03/24 15:11:34;;;;;;;6.40;4.10;;;;;;;17.81;53.52;97662.64;221526;1278;25298;-80
2023/03/24 15:16:37;;;;;;;6.70;4.30;;;;;;;17.70;53.72;97661.90;221533;1281;22530;-79
2023/03/24 15:21:48;;;;;;;5.00;3.60;;;;;;;17.61;53.94;97664.25;221275;1281;22529;-80
2023/03/24 15:27:06;;;;;;;6.60;4.50;;;;;;;17.53;54.09;97665.55;221825;1277;22489;-81
2023/03/24 15:32:22;;;;;;;5.70;4.60;;;;;;;17.47;54.98;97665.09;221779;1279;22670;-79
2023/03/24 15:37:39;;;;;;;6.00;4.30;;;;;;;17.34;55.54;97661.86;222037;1281;22517;-79
2023/03/24 15:42:47;;;;;;;5.80;4.90;;;;;;;17.23;55.25;97669.27;221825;1281;25307;-81
2023/03/24 15:47:54;;;;;;;7.50;4.40;;;;;;;17.12;56.00;97670.48;222001;1277;25765;-79
2023/03/24 15:53:14;;;;;;;7.10;5.00;;;;;;;16.99;57.21;97678.30;222305;1281;25266;-79
2023/03/24 15:58:27;;;;;;;8.30;5.90;;;;;;;16.73;58.66;97679.73;222476;1278;24212;-79
2023/03/24 16:03:33;;;;;;;7.00;5.20;;;;;;;16.43;59.44;97681.73;223021;1278;22486;-79
2023/03/24 16:08:40;;;;;;;7.10;5.60;;;;;;;16.18;60.44;97687.23;222430;1281;22594;-79
2023/03/24 16:13:44;;;;;;;7.60;5.60;;;;;;;16.01;60.97;97700.02;221826;1279;26098;-80
2023/03/24 16:18:50;;;;;;;9.20;6.30;;;;;;;15.87;61.53;97700.01;221452;1280;22554;-81
2023/03/24 16:23:59;;;;;;;7.80;6.50;;;;;;;15.75;62.41;97708.91;221985;1281;22490;-80
2023/03/24 16:29:37;;;;;;;8.40;6.10;;;;;;;15.58;62.85;97720.09;221802;1277;22888;-81
2023/03/24 16:34:57;;;;;;;7.10;6.40;;;;;;;15.43;64.09;97721.73;221306;1278;24469;-79
2023/03/24 16:40:21;;;;;;;6.90;6.10;;;;;;;15.26;65.16;97712.89;221207;1281;22666;-81
2023/03/24 16:45:24;;;;;;;9.50;6.80;;;;;;;15.01;66.32;97709.88;221144;1280;22543;-80
2023/03/24 16:50:36;;;;;;;7.30;6.30;;;;;;;14.82;67.28;97716.36;220966;1281;22534;-80
2023/03/24 16:55:59;;;;;;;;;;;;;;;;;;;;;
2023/03/24 17:01:25;;;;;;;9.30;7.60;;;;;;;14.55;68.46;97709.58;221239;1281;22530;-80
2023/03/24 17:06:31;;;;;;;9.60;8.20;;;;;;;14.36;69.17;97692.54;221305;1281;23283;-80
2023/03/24 17:12:04;;;;;;;12.00;9.30;;;;;;;14.13;69.67;97678.19;221061;1281;24780;-80
2023/03/24 17:17:12;;;;;;;13.30;10.20;;;;;;;13.90;70.14;97692.58;221158;1278;23009;-81
2023/03/24 17:22:19;;;;;;;14.10;10.10;;;;;;;13.78;70.52;97726.48;221341;1281;25371;-81
2023/03/24 17:27:23;;;;;;;15.50;10.00;;;;;;;13.73;70.99;97748.41;220921;1281;23690;-81
2023/03/24 17:32:30;;;;;;;12.30;10.30;;;;;;;13.71;71.31;97769.85;221335;1278;24241;-80
2023/03/24 17:37:45;;;;;;;12.00;9.90;;;;;;;13.73;71.44;97763.60;221289;1275;22540;-80
2023/03/24 17:42:48;;;;;;;11.30;8.50;;;;;;;13.77;71.06;97768.52;221113;1278;24342;-79
2023/03/24 17:48:00;;;;;;;11.60;9.80;;;;;;;13.81;71.01;97754.46;221294;1278;22635;-78
2023/03/24 17:53:06;;;;;;;11.00;9.20;;;;;;;13.84;70.88;97750.36;221867;1281;24221;-79
2023/03/24 17:58:09;;;;;;;9.90;8.60;;;;;;;13.86;70.85;97749.88;222289;1281;24213;-79
2023/03/24 18:03:17;;;;;;;10.80;9.30;;;;;;;13.82;70.83;97748.27;222946;1279;22546;-80
2023/03/24 18:08:25;;;;;;;;;;;;;;;13.78;71.18;97723.30;223165;1281;24347;-78
2023/03/24 18:13:37;;;;;;;9.40;8.40;;;;;;;13.72;71.25;97724.17;223752;1281;25365;-79
2023/03/24 18:18:44;;;;;;;11.00;9.50;;;;;;;13.68;71.51;97725.46;223300;1281;22587;-78
2023/03/24 18:23:50;;;;;;;10.70;9.60;;;;;;;13.65;71.66;97732.83;223136;1281;22472;-79
2023/03/24 18:29:06;;;;;;;11.50;10.30;;;;;;;13.60;71.90;97726.89;223305;1281;24504;-79
2023/03/24 18:34:11;;;;;;;10.50;8.90;;;;;;;13.55;72.05;97744.87;223125;1280;24176;-78
2023/03/24 18:39:25;;;;;;;11.80;9.80;;;;;;;13.51;72.55;97742.83;222959;1274;22560;-79
2023/03/24 18:44:30;;;;;;;11.30;9.80;;;;;;;13.45;72.74;97733.05;222845;1278;22519;-80
2023/03/24 18:49:34;;;;;;;11.30;8.90;;;;;;;13.37;72.80;97726.98;222883;1281;22532;-79
2023/03/24 18:54:42;;;;;;;10.20;9.20;;;;;;;13.31;73.39;97726.12;222876;1281;22557;-79
2023/03/24 18:59:58;;;;;;;11.80;9.70;;;;;;;13.28;73.58;97733.20;222428;1281;23022;-79
2023/03/24 19:05:07;;;;;;;10.30;8.60;;;;;;;13.26;73.48;97738.45;222479;1281;25300;-80
2023/03/24 19:10:15;;;;;;;10.50;8.30;;;;;;;13.24;73.60;97738.72;222413;1278;22879;-80
2023/03/24 19:15:19;;;;;;;10.50;9.10;;;;;;;13.23;73.75;97738.20;222604;1281;22769;-80
2023/03/24 19:20:22;;;;;;;10.70;8.80;;;;;;;13.21;74.01;97735.20;222260;1281;25445;-79
2023/03/24 19:25:24;;;;;;;11.30;8.80;;;;;;;13.19;74.21;97742.80;222353;1276;25313;-80
2023/03/24 19:30:28;;;;;;;10.60;8.50;;;;;;;13.16;74.29;97742.58;222172;1265;24299;-80
2023/03/24 19:35:31;;;;;;;11.30;8.70;;;;;;;13.12;74.46;97739.64;222012;1281;22572;-80
2023/03/24 19:40:33;;;;;;;12.70;8.90;;;;;;;13.07;74.79;97738.77;221781;1281;22537;-79
2023/03/24 19:45:42;;;;;;;8.30;7.30;;;;;;;13.02;74.80;97737.77;222050;1281;22556;-79
2023/03/24 19:50:48;;;;;;;8.90;7.60;;;;;;;12.95;75.06;97738.39;221744;1281;24235;-80
2023/03/24 19:55:56;;;;;;;9.00;7.40;;;;;;;12.93;75.47;97742.55;221940;1281;22589;-80
2023/03/24 20:01:04;;;;;;;9.40;7.30;;;;;;;12.89;75.34;97736.80;222154;1281;23264;-79
2023/03/24 20:06:08;;;;;;;11.10;7.50;;;;;;;12.82;75.39;97734.33;222332;1278;24183;-80
2023/03/24 20:11:11;;;;;;;8.20;6.40;;;;;;;12.76;75.71;97735.58;222209;1281;22953;-80
2023/03/24 20:16:16;;;;;;;8.50;6.70;;;;;;;12.70;75.89;97736.48;222422;1281;22543;-80
2023/03/24 20:21:21;;;;;;;7.90;6.40;;;;;;;12.63;76.03;97733.35;222161;1265;24254;-80
2023/03/24 20:26:36;;;;;;;6.60;5.80;;;;;;;12.56;76.24;97730.56;221916;1280;24282;-79
2023/03/24 20:31:41;;;;;;;6.50;5.50;;;;;;;12.48;76.24;97734.44;221926;1279;22731;-82
2023/03/24 20:36:45;;;;;;;9.20;5.40;;;;;;;12.41;76.53;97735.64;222116;1279;24275;-79
2023/03/24 20:41:48;;;;;;;6.30;5.30;;;;;;;12.40;76.88;97735.70;222084;1281;25287;-79
2023/03/24 20:46:55;;;;;;;6.80;4.50;;;;;;;12.42;77.09;97734.08;222417;1281;22749;-80
2023/03/24 20:51:58;;;;;;;6.10;4.90;;;;;;;12.47;77.13;97730.05;222493;1281;22531;-79
2023/03/24 20:57:05;;;;;;;7.90;4.60;;;;;;;12.51;77.10;97720.28;222530;1281;25420;-79
2023/03/24 21:02:09;;;;;;;6.40;4.10;;;;;;;12.57;77.13;97723.18;222394;1281;24302;-79
2023/03/24 21:07:13;;;;;;;6.20;4.30;;;;;;;12.63;77.00;97737.84;222368;1279;25863;-79
2023/03/24 21:12:16;;;;;;;4.80;4.00;;;;;;;12.68;77.02;97736.54;222070;1279;22530;-78
2023/03/24 21:17:34;;;;;;;4.90;4.10;;;;;;;12.70;76.94;97742.18;222223;1274;22557;-80
2023/03/24 21:22:51;;;;;;;5.20;4.00;;;;;;;12.73;77.02;97747.12;222071;1278;23009;-79
2023/03/24 21:27:57;;;;;;;5.90;4.10;;;;;;;12.74;76.86;97738.55;222288;1278;22536;-79
2023/03/24 21:33:03;;;;;;;5.60;3.80;;;;;;;12.78;76.88;97747.27;222315;1281;25407;-79
2023/03/24 21:38:14;;;;;;;5.10;3.90;;;;;;;12.79;76.77;97743.59;222068;1281;22486;-81
2023/03/24 21:43:18;;;;;;;6.30;4.60;;;;;;;12.78;76.95;97740.13;221894;1281;22531;-78
2023/03/24 21:48:25;;;;;;;6.40;4.30;;;;;;;12.78;76.94;97733.56;222068;1279;22573;-78
2023/03/24 21:53:41;;;;;;;5.40;3.70;;;;;;;12.77;76.83;97727.64;222049;1281;25232;-79
2023/03/24 21:58:45;;;;;;;5.00;3.90;;;;;;;12.73;77.06;97727.34;221964;1281;22574;-78
2023/03/24 22:03:49;;;;;;;4.00;3.50;;;;;;;12.68;76.99;97728.06;221988;1280;22531;-80
2023/03/24 22:09:05;;;;;;;3.90;3.30;;;;;;;12.64;77.30;97724.03;221926;1281;25410;-79
2023/03/24 22:14:12;;;;;;;3.90;3.30;;;;;;;12.60;77.26;97723.96;222074;1281;25448;-80
2023/03/24 22:19:14;;;;;;;4.60;3.50;;;;;;;12.58;77.39;97722.27;221817;1281;156450;-80
2023/03/24 22:24:18;;;;;;;4.30;3.30;;;;;;;12.57;77.42;97728.55;221702;1281;24456;-79
2023/03/24 22:29:28;;;;;;;3.80;3.20;;;;;;;12.57;77.45;97727.16;221434;1281;25432;-80
2023/03/24 22:34:33;;;;;;;5.00;3.40;;;;;;;12.56;77.34;97717.85;221503;1281;23790;-80
2023/03/24 22:39:36;;;;;;;3.50;3.10;;;;;;;12.55;77.43;97706.91;221880;1278;24192;-79
2023/03/24 22:44:50;;;;;;;4.40;3.50;;;;;;;12.52;77.41;97710.13;221708;1280;24272;-79
2023/03/24 22:49:55;;;;;;;4.10;3.00;;;;;;;12.49;77.59;97711.14;221349;1281;23393;-78
2023/03/24 22:55:00;;;;;;;3.20;2.90;;;;;;;12.46;77.45;97723.91;221718;1281;22541;-78
2023/03/24 23:00:05;;;;;;;3.80;3.00;;;;;;;12.46;77.58;97725.06;221574;1281;22535;-80
2023/03/24 23:05:16;;;;;;;4.80;3.40;;;;;;;12.46;77.54;97722.59;221887;1281;22530;-79
2023/03/24 23:10:19;;;;;;;5.80;3.50;;;;;;;12.45;77.58;97722.46;221444;1281;22562;-79
2023/03/24 23:15:25;;;;;;;4.00;3.30;;;;;;;12.43;77.52;97721.64;221646;1281;23758;-79
2023/03/24 23:20:28;;;;;;;4.10;3.40;;;;;;;12.36;77.53;97713.15;221863;1277;25287;-80
2023/03/24 23:25:31;;;;;;;4.50;3.40;;;;;;;12.29;77.71;97706.59;221722;1281;22613;-80
2023/03/24 23:30:35;;;;;;;4.70;3.50;;;;;;;12.25;77.84;97717.27;222067;1265;25401;-80
2023/03/24 23:35:37;;;;;;;4.80;3.80;;;;;;;12.22;77.97;97718.61;221924;1281;22780;-78
2023/03/24 23:40:40;;;;;;;5.30;3.80;;;;;;;12.16;77.92;97711.61;222072;1278;22540;-78
2023/03/24 23:45:45;;;;;;;5.30;4.10;;;;;;;12.05;77.91;97718.95;222304;1258;22541;-78
2023/03/24 23:51:16;;;;;;;4.80;3.40;;;;;;;11.94;78.02;97728.59;222424;1281;25316;-78
2023/03/24 23:56:20;;;;;;;5.70;4.10;;;;;;;11.79;78.23;97723.18;222389;1281;22636;-77
